Time;durP1;ratioP1;P1;durP2;ratioP2;P2;SDS_P1;SDS_P2;PMS_P1;PMS_P2;Temp;Humidity;BMP_temperature;BMP_pressure;BME280_temperature;BME280_humidity;BME280_pressure;Samples;Min_cycle;Max_cycle;Signal;HPM_P1;HPM_P2
2023/12/07 00:01:03;;;;;;;;;33.67;20.00;;;;;6.74;76.62;101688.22;5060428;28;46182;-48
2023/12/07 00:03:28;;;;;;;;;24.00;21.00;;;;;6.73;77.08;101688.25;5059875;28;48173;-51
2023/12/07 00:05:53;;;;;;;;;24.33;22.00;;;;;6.73;76.71;101691.75;5063050;28;60026;-49
2023/12/07 00:08:19;;;;;;;;;32.33;23.00;;;;;6.76;76.89;101686.41;5060825;28;70571;-49
2023/12/07 00:10:44;;;;;;;;;29.33;23.33;;;;;6.80;76.48;101684.56;5059849;28;74278;-48
2023/12/07 00:13:09;;;;;;;;;28.00;23.00;;;;;6.88;76.33;101679.13;5084148;27;73091;-47
2023/12/07 00:15:35;;;;;;;;;23.67;22.33;;;;;6.96;75.83;101674.53;5061204;28;45867;-50
2023/12/07 00:18:00;;;;;;;;;23.00;21.67;;;;;7.05;75.91;101676.13;5064713;28;70614;-48
2023/12/07 00:20:26;;;;;;;;;24.33;22.33;;;;;7.12;75.83;101672.47;5073199;27;75413;-48
2023/12/07 00:22:51;;;;;;;;;21.33;15.33;;;;;7.15;75.60;101668.88;5058236;28;66654;-48
2023/12/07 00:25:16;;;;;;;;;30.67;22.67;;;;;7.17;75.29;101667.06;5061060;28;45559;-49
2023/12/07 00:27:42;;;;;;;;;24.33;23.00;;;;;7.14;75.25;101656.56;5063836;28;70449;-48
2023/12/07 00:30:08;;;;;;;;;22.33;20.00;;;;;7.06;75.30;101651.41;5060030;28;74469;-49
2023/12/07 00:32:34;;;;;;;;;23.67;22.33;;;;;7.06;75.12;101656.72;5058022;28;45576;-47
2023/12/07 00:34:59;;;;;;;;;20.67;16.67;;;;;7.04;75.32;101646.16;5060340;28;68418;-48
2023/12/07 00:37:24;;;;;;;;;25.67;21.00;;;;;7.05;75.48;101654.97;5065673;28;56249;-48
2023/12/07 00:39:50;;;;;;;;;31.33;24.33;;;;;6.97;75.10;101657.78;5059124;28;74476;-48
2023/12/07 00:42:15;;;;;;;;;20.00;19.33;;;;;6.92;75.25;101657.88;5059395;28;45656;-51
2023/12/07 00:44:41;;;;;;;;;30.67;25.00;;;;;6.90;75.33;101664.97;5058636;28;67845;-49
2023/12/07 00:47:06;;;;;;;;;11.33;11.33;;;;;6.88;75.59;101666.78;5065178;28;45497;-48
2023/12/07 00:49:32;;;;;;;;;32.00;20.00;;;;;6.88;75.51;101669.44;5059540;28;75790;-48
2023/12/07 00:51:57;;;;;;;;;27.00;18.67;;;;;6.88;75.35;101668.56;5058971;28;63058;-51
2023/12/07 00:54:22;;;;;;;;;22.67;17.33;;;;;6.85;75.05;101674.78;5059567;28;68562;-48
2023/12/07 00:56:47;;;;;;;;;20.33;18.33;;;;;6.84;75.34;101669.53;5059314;28;47594;-51
2023/12/07 00:59:13;;;;;;;;;21.33;18.67;;;;;6.86;75.16;101662.44;5059908;28;46261;-51
2023/12/07 01:01:38;;;;;;;;;21.67;18.00;;;;;6.85;75.48;101669.47;5061658;28;45457;-48
2023/12/07 01:04:05;;;;;;;;;20.33;16.33;;;;;6.82;74.99;101663.38;5064881;28;45497;-50
2023/12/07 01:06:30;;;;;;;;;22.67;16.67;;;;;6.83;75.49;101662.47;5060448;28;45556;-51
2023/12/07 01:08:56;;;;;;;;;19.00;16.00;;;;;6.84;75.47;101653.66;5068637;28;59446;-51
2023/12/07 01:11:21;;;;;;;;;18.67;17.00;;;;;6.85;75.40;101665.97;5059451;28;45753;-49
2023/12/07 01:13:46;;;;;;;;;25.67;19.33;;;;;6.86;75.11;101670.38;5058654;28;68231;-49
2023/12/07 01:16:12;;;;;;;;;11.00;8.00;;;;;6.87;75.53;101666.81;5062568;28;45418;-50
2023/12/07 01:18:37;;;;;;;;;18.00;14.67;;;;;6.88;75.15;101671.19;5061566;28;65345;-49
2023/12/07 01:21:03;;;;;;;;;19.67;16.33;;;;;6.85;75.02;101664.19;5062960;27;46608;-50
2023/12/07 01:23:28;;;;;;;;;14.67;14.33;;;;;6.83;74.92;101659.84;5058144;28;45522;-51
2023/12/07 01:25:53;;;;;;;;;19.33;16.33;;;;;6.84;75.09;101658.94;5060795;28;45328;-51
2023/12/07 01:28:19;;;;;;;;;22.00;17.67;;;;;6.85;75.41;101650.97;5058342;28;72032;-49
2023/12/07 01:30:44;;;;;;;;;15.33;15.00;;;;;6.85;75.14;101645.69;5059017;28;68006;-49
2023/12/07 01:33:09;;;;;;;;;22.67;16.33;;;;;6.84;75.37;101643.94;5059343;28;45283;-49
2023/12/07 01:35:35;;;;;;;;;22.00;16.00;;;;;6.80;74.86;101650.19;5081182;27;65838;-52
2023/12/07 01:38:00;;;;;;;;;16.00;14.33;;;;;6.75;75.04;101644.13;5059437;28;46462;-50
2023/12/07 01:40:25;;;;;;;;;18.33;14.00;;;;;6.73;75.35;101638.00;5059348;28;73137;-51
2023/12/07 01:42:52;;;;;;;;;20.67;15.33;;;;;6.72;75.29;101633.63;5057790;28;45466;-49
2023/12/07 01:45:18;;;;;;;;;20.67;17.00;;;;;6.69;75.35;101638.97;5062187;28;45747;-49
2023/12/07 01:47:44;;;;;;;;;20.00;15.33;;;;;6.66;75.19;101642.53;5059467;28;46088;-51
2023/12/07 01:50:10;;;;;;;;;19.33;14.67;;;;;6.67;75.19;101644.28;5060203;28;45252;-49
2023/12/07 01:52:38;;;;;;;;;17.67;15.67;;;;;6.69;75.30;101650.41;5059096;28;45377;-50
2023/12/07 01:55:05;;;;;;;;;17.67;15.67;;;;;6.68;74.95;101651.31;5088309;27;45431;-51
2023/12/07 01:57:30;;;;;;;;;19.67;16.67;;;;;6.63;75.31;101642.59;5051790;28;47240;-48
2023/12/07 01:59:56;;;;;;;;;15.67;14.00;;;;;6.62;75.53;101651.44;5060552;28;45556;-49
2023/12/07 02:02:21;;;;;;;;;20.67;16.00;;;;;6.61;75.53;101647.06;5056604;28;69127;-51
2023/12/07 02:04:46;;;;;;;;;15.33;15.33;;;;;6.61;75.63;101647.94;5044868;28;45447;-48
2023/12/07 02:07:12;;;;;;;;;20.00;17.67;;;;;6.62;75.60;101648.78;5060132;28;64735;-48
2023/12/07 02:09:37;;;;;;;;;17.67;13.67;;;;;6.64;75.52;101643.50;5060574;28;73482;-52
2023/12/07 02:12:03;;;;;;;;;23.67;16.67;;;;;6.64;75.63;101643.50;5059735;28;69445;-51
2023/12/07 02:14:28;;;;;;;;;14.00;13.00;;;;;6.63;75.66;101632.03;5062273;28;45397;-47
2023/12/07 02:17:04;;;;;;;;;17.33;13.00;;;;;6.61;75.51;101623.28;5061798;28;46362;-50
2023/12/07 02:19:48;;;;;;;;;15.67;13.33;;;;;6.57;76.23;101613.63;5060690;28;46372;-50
2023/12/07 02:22:19;;;;;;;;;18.00;15.00;;;;;6.55;75.93;101618.09;5058243;28;45395;-48
2023/12/07 02:24:51;;;;;;;;;16.00;13.33;;;;;6.55;75.93;101618.09;5062794;28;45492;-48
2023/12/07 02:27:17;;;;;;;;;17.33;12.00;;;;;6.58;76.04;101612.75;5059200;28;45677;-49
2023/12/07 02:29:42;;;;;;;;;16.67;13.00;;;;;6.65;75.87;101611.72;5059939;28;45339;-51
2023/12/07 02:32:07;;;;;;;;;17.67;11.00;;;;;6.71;75.95;101608.06;5056438;28;45286;-51
2023/12/07 02:34:33;;;;;;;;;20.67;16.67;;;;;6.75;75.65;101610.66;5057746;28;70587;-51
2023/12/07 02:36:59;;;;;;;;;25.00;18.67;;;;;6.79;75.64;101609.66;5088317;27;60606;-52
2023/12/07 02:39:24;;;;;;;;;17.67;17.00;;;;;6.77;75.76;101603.53;5059547;28;45215;-51
2023/12/07 02:41:50;;;;;;;;;17.67;15.00;;;;;6.75;75.57;101609.75;5062486;28;45327;-51
2023/12/07 02:44:15;;;;;;;;;12.67;11.33;;;;;6.78;75.34;101609.72;5064804;28;45536;-50
2023/12/07 02:46:41;;;;;;;;;17.00;14.33;;;;;6.80;75.37;101618.47;5056596;28;76494;-52
2023/12/07 02:49:06;;;;;;;;;15.33;13.00;;;;;6.83;75.45;101617.53;5059791;28;66009;-51
2023/12/07 02:51:32;;;;;;;;;15.00;14.33;;;;;6.83;75.35;101618.41;5063323;28;69465;-50
2023/12/07 02:53:57;;;;;;;;;11.33;11.33;;;;;6.85;75.46;101624.53;5059402;28;45327;-50
2023/12/07 02:56:22;;;;;;;;;14.33;13.67;;;;;6.86;75.32;101626.28;5056738;28;75679;-51
2023/12/07 02:58:48;;;;;;;;;17.33;15.00;;;;;6.88;75.24;101634.16;5061316;28;45418;-51
2023/12/07 03:01:13;;;;;;;;;18.67;15.00;;;;;6.89;75.35;101639.41;5053151;27;67965;-50
2023/12/07 03:03:40;;;;;;;;;14.67;12.67;;;;;6.93;75.20;101641.09;5055424;28;69443;-51
2023/12/07 03:06:05;;;;;;;;;15.00;13.67;;;;;6.93;74.95;101627.88;5062272;28;46098;-48
2023/12/07 03:08:31;;;;;;;;;13.67;13.67;;;;;6.93;75.20;101606.69;5058310;28;46497;-51
2023/12/07 03:10:56;;;;;;;;;14.67;13.33;;;;;6.92;75.04;101581.19;5056868;28;45870;-51
2023/12/07 03:13:22;;;;;;;;;14.00;14.00;;;;;6.90;75.01;101545.09;5056303;28;70507;-50
2023/12/07 03:15:47;;;;;;;;;17.00;14.33;;;;;6.85;74.69;101549.63;5058966;28;45445;-49
2023/12/07 03:18:13;;;;;;;;;20.00;14.67;;;;;6.79;74.90;101540.91;5055651;28;73245;-51
2023/12/07 03:20:38;;;;;;;;;20.67;17.00;;;;;6.76;75.13;101530.38;5057824;28;45318;-51
2023/12/07 03:23:04;;;;;;;;;14.67;12.67;;;;;6.72;75.19;101510.22;5058707;28;45442;-50
2023/12/07 03:25:29;;;;;;;;;15.00;12.33;;;;;6.69;75.23;101512.94;5060000;28;46091;-50
2023/12/07 03:27:54;;;;;;;;;14.00;14.00;;;;;6.66;75.32;101523.56;5062993;28;45410;-51
2023/12/07 03:30:20;;;;;;;;;18.00;13.33;;;;;6.65;75.32;101536.81;5058542;28;69092;-48
2023/12/07 03:32:45;;;;;;;;;17.33;13.00;;;;;6.63;75.54;101550.06;5057639;28;59104;-48
2023/12/07 03:35:11;;;;;;;;;14.00;13.33;;;;;6.61;75.39;101567.75;5055505;28;75434;-48
2023/12/07 03:37:36;;;;;;;;;18.33;13.00;;;;;6.63;75.36;101560.66;5050596;28;45407;-48
2023/12/07 03:40:04;;;;;;;;;17.33;13.33;;;;;6.64;75.63;101548.31;5062027;28;45525;-48
2023/12/07 03:42:29;;;;;;;;;13.67;11.00;;;;;6.63;75.25;101552.72;5056741;28;45600;-48
2023/12/07 03:44:54;;;;;;;;;16.00;14.00;;;;;6.64;75.65;101549.19;5056810;27;75461;-49
2023/12/07 03:47:20;;;;;;;;;15.33;13.33;;;;;6.68;75.16;101542.06;5085997;27;46372;-49
2023/12/07 03:49:45;;;;;;;;;16.33;12.00;;;;;6.69;75.57;101546.41;5057628;28;57771;-49
2023/12/07 03:52:11;;;;;;;;;15.00;13.33;;;;;6.70;75.49;101548.16;5061164;28;45570;-49
2023/12/07 03:54:37;;;;;;;;;14.00;13.00;;;;;6.71;75.13;101545.47;5089216;27;75187;-48
2023/12/07 03:57:03;;;;;;;;;15.00;11.33;;;;;6.72;75.19;101547.22;5051297;28;45414;-49
2023/12/07 03:59:28;;;;;;;;;17.67;15.00;;;;;6.70;75.02;101541.13;5059127;28;45515;-49
2023/12/07 04:01:53;;;;;;;;;18.00;14.67;;;;;6.65;75.24;101543.00;5054663;28;70535;-49
2023/12/07 04:04:18;;;;;;;;;15.00;13.00;;;;;6.59;75.37;101530.75;5056589;28;72430;-48
2023/12/07 04:06:44;;;;;;;;;15.67;13.00;;;;;6.60;75.86;101534.28;5061967;28;73492;-48
2023/12/07 04:09:09;;;;;;;;;13.67;11.67;;;;;6.58;75.42;101533.44;5060558;28;48848;-50
2023/12/07 04:11:34;;;;;;;;;21.00;15.33;;;;;6.58;75.27;101552.84;5062100;28;45304;-49
2023/12/07 04:14:00;;;;;;;;;15.33;12.67;;;;;6.57;75.19;101560.78;5058835;28;49268;-50
2023/12/07 04:16:25;;;;;;;;;16.67;13.33;;;;;6.51;75.60;101580.28;5064002;28;72001;-49
2023/12/07 04:18:51;;;;;;;;;16.33;15.00;;;;;6.47;75.95;101583.91;5060876;28;45492;-51
2023/12/07 04:21:16;;;;;;;;;7.67;4.33;;;;;6.44;75.95;101573.38;5061733;28;45581;-48
2023/12/07 04:23:42;;;;;;;;;14.67;13.00;;;;;6.48;75.98;101571.53;5059884;28;75927;-48
2023/12/07 04:26:07;;;;;;;;;14.00;10.00;;;;;6.50;76.02;101562.69;5066999;28;45809;-49
2023/12/07 04:28:33;;;;;;;;;14.33;12.00;;;;;6.54;76.02;101552.91;5060734;28;46452;-49
2023/12/07 04:30:58;;;;;;;;;12.33;12.33;;;;;6.58;75.95;101560.75;5059347;28;70356;-50
2023/12/07 04:33:23;;;;;;;;;14.00;12.67;;;;;6.61;75.95;101544.81;5066909;28;75446;-48
2023/12/07 04:35:49;;;;;;;;;12.00;9.33;;;;;6.62;75.73;101543.03;5067119;28;45303;-50
2023/12/07 04:38:14;;;;;;;;;12.67;12.67;;;;;6.62;75.62;101543.03;5063792;28;68248;-48
2023/12/07 04:40:39;;;;;;;;;12.33;10.00;;;;;6.64;75.96;101541.25;5061344;28;45458;-48
2023/12/07 04:43:05;;;;;;;;;11.00;11.00;;;;;6.64;75.91;101538.59;5052723;28;66546;-49
2023/12/07 04:45:30;;;;;;;;;14.33;12.00;;;;;6.65;75.69;101529.78;5058969;28;70322;-51
2023/12/07 04:47:57;;;;;;;;;13.33;11.33;;;;;6.66;75.72;101520.91;5059607;28;49562;-49
2023/12/07 04:50:22;;;;;;;;;13.67;11.33;;;;;6.67;75.79;101509.44;5061800;28;45452;-51
2023/12/07 04:52:48;;;;;;;;;12.67;11.33;;;;;6.69;75.84;101509.41;5059897;28;58291;-50
2023/12/07 04:55:15;;;;;;;;;11.67;10.33;;;;;6.69;75.48;101510.28;5060009;28;46047;-48
2023/12/07 04:57:40;;;;;;;;;11.67;9.33;;;;;6.68;75.50;101500.59;5060593;28;45283;-48
2023/12/07 05:00:06;;;;;;;;;16.00;13.00;;;;;6.66;75.51;101486.53;5063906;28;45543;-50
2023/12/07 05:02:31;;;;;;;;;12.00;11.00;;;;;6.66;75.66;101489.19;5059629;28;46021;-47
2023/12/07 05:04:57;;;;;;;;;12.00;9.00;;;;;6.68;75.51;101494.47;5059579;28;45374;-50
2023/12/07 05:07:23;;;;;;;;;12.33;9.33;;;;;6.69;75.27;101489.13;5059173;28;69245;-49
2023/12/07 05:09:48;;;;;;;;;15.00;13.00;;;;;6.64;75.35;101483.09;5059931;28;45311;-48
2023/12/07 05:12:13;;;;;;;;;14.00;13.00;;;;;6.61;75.43;101478.72;5059261;28;46302;-49
2023/12/07 05:14:39;;;;;;;;;21.00;14.33;;;;;6.61;75.51;101468.16;5065390;28;61302;-51
2023/12/07 05:17:05;;;;;;;;;17.67;11.67;;;;;6.62;75.60;101467.25;5060748;28;69552;-51
2023/12/07 05:19:30;;;;;;;;;12.00;12.00;;;;;6.65;75.62;101468.06;5063000;28;45376;-51
2023/12/07 05:21:55;;;;;;;;;12.67;11.33;;;;;6.65;75.46;101465.44;5060528;27;58373;-50
2023/12/07 05:24:20;;;;;;;;;16.00;12.00;;;;;6.64;75.37;101469.88;5058136;28;64224;-49
2023/12/07 05:26:46;;;;;;;;;14.33;8.67;;;;;6.63;75.30;101468.13;5059099;28;68230;-49
2023/12/07 05:29:12;;;;;;;;;12.67;12.00;;;;;6.66;75.43;101478.63;5074088;28;46444;-49
2023/12/07 05:31:38;;;;;;;;;13.33;12.00;;;;;6.68;75.51;101475.97;5058159;28;46275;-48
2023/12/07 05:34:03;;;;;;;;;10.33;10.33;;;;;6.66;75.31;101483.91;5061110;28;45491;-49
2023/12/07 05:36:29;;;;;;;;;15.67;15.67;;;;;6.64;75.28;101501.59;5054459;28;68362;-51
2023/12/07 05:38:54;;;;;;;;;17.67;12.33;;;;;6.58;75.26;101501.72;5059358;28;45546;-47
2023/12/07 05:41:19;;;;;;;;;14.00;14.00;;;;;6.55;75.29;101507.94;5061089;28;52353;-51
2023/12/07 05:43:45;;;;;;;;;11.67;10.67;;;;;6.54;75.83;101511.47;5053014;27;72011;-50
2023/12/07 05:46:10;;;;;;;;;13.67;12.33;;;;;6.55;75.58;101507.94;5067395;27;69076;-50
2023/12/07 05:48:35;;;;;;;;;10.33;10.33;;;;;6.57;75.47;101499.97;5059219;28;45389;-48
2023/12/07 05:51:04;;;;;;;;;11.00;10.00;;;;;6.57;75.14;101487.66;5058055;28;46151;-49
2023/12/07 05:53:32;;;;;;;;;14.00;11.00;;;;;6.59;75.42;101482.31;5085327;27;45468;-50
2023/12/07 05:55:58;;;;;;;;;10.67;10.00;;;;;6.62;75.33;101482.22;5058835;28;45310;-51
2023/12/07 05:58:23;;;;;;;;;10.00;10.00;;;;;6.65;75.43;101487.47;5059477;28;45279;-49
2023/12/07 06:00:49;;;;;;;;;12.00;10.00;;;;;6.66;75.20;101475.13;5057358;28;61467;-49
2023/12/07 06:03:15;;;;;;;;;14.00;12.00;;;;;6.61;74.84;101472.59;5057166;28;45391;-51
2023/12/07 06:05:40;;;;;;;;;16.00;13.00;;;;;6.60;75.20;101466.41;5058128;28;45367;-50
2023/12/07 06:08:06;;;;;;;;;13.00;11.33;;;;;6.58;74.88;101468.25;5065579;28;45520;-49
2023/12/07 06:10:31;;;;;;;;;11.33;11.33;;;;;6.56;75.00;101472.69;5056800;28;47462;-52
2023/12/07 06:12:59;;;;;;;;;13.00;11.00;;;;;6.57;74.69;101479.72;5058050;28;72175;-52
2023/12/07 06:15:24;;;;;;;;;11.00;10.00;;;;;6.58;75.12;101480.56;5051995;28;45814;-49
2023/12/07 06:17:49;;;;;;;;;12.33;11.00;;;;;6.60;75.09;101473.50;5051500;28;67408;-49
2023/12/07 06:20:15;;;;;;;;;13.67;12.00;;;;;6.62;74.97;101466.38;5053600;28;46184;-49
2023/12/07 06:22:40;;;;;;;;;13.33;13.33;;;;;6.62;75.20;101458.44;5091549;27;45373;-52
2023/12/07 06:25:08;;;;;;;;;12.00;10.67;;;;;6.59;74.87;101446.16;5058561;28;45307;-49
2023/12/07 06:27:34;;;;;;;;;14.00;11.67;;;;;6.58;75.10;101439.16;5058586;28;45358;-49
2023/12/07 06:29:59;;;;;;;;;15.00;11.33;;;;;6.61;74.83;101427.66;5055219;28;46414;-49
2023/12/07 06:32:25;;;;;;;;;12.00;10.33;;;;;6.61;74.72;101419.72;5049867;28;72096;-49
2023/12/07 06:34:50;;;;;;;;;16.67;13.00;;;;;6.61;74.81;101420.56;5055072;28;45279;-49
2023/12/07 06:37:17;;;;;;;;;16.67;14.00;;;;;6.61;74.76;101417.94;5054850;28;45506;-52
2023/12/07 06:39:42;;;;;;;;;10.00;10.00;;;;;6.59;74.64;101419.72;5058993;28;46088;-52
2023/12/07 06:42:08;;;;;;;;;10.00;10.00;;;;;6.59;74.67;101418.88;5056545;28;71006;-49
2023/12/07 06:44:33;;;;;;;;;11.67;6.33;;;;;6.61;74.60;101425.00;5056792;28;45601;-50
2023/12/07 06:46:58;;;;;;;;;14.00;12.33;;;;;6.62;74.61;101413.50;5062853;28;45581;-50
2023/12/07 06:49:24;;;;;;;;;10.00;9.67;;;;;6.62;74.65;101417.03;5058655;28;46049;-50
2023/12/07 06:51:49;;;;;;;;;10.33;8.33;;;;;6.65;74.60;101426.66;5057935;28;71856;-51
2023/12/07 06:54:14;;;;;;;;;9.67;9.33;;;;;6.65;74.64;101424.03;5057381;28;69215;-50
2023/12/07 06:56:40;;;;;;;;;14.00;11.00;;;;;6.68;74.60;101423.09;5059050;28;45470;-49
2023/12/07 06:59:05;;;;;;;;;11.00;11.00;;;;;6.63;74.15;101428.47;5056851;28;46218;-50
2023/12/07 07:01:30;;;;;;;;;13.33;11.00;;;;;6.60;74.39;101431.19;5057321;28;73327;-50
2023/12/07 07:03:56;;;;;;;;;12.67;11.67;;;;;6.54;74.26;101421.59;5056179;28;68351;-50
2023/12/07 07:06:21;;;;;;;;;12.67;11.00;;;;;6.50;74.29;101413.81;5058622;28;45398;-49
2023/12/07 07:08:47;;;;;;;;;14.00;11.67;;;;;6.50;74.39;101404.09;5056868;28;50450;-49
2023/12/07 07:11:15;;;;;;;;;11.33;11.33;;;;;6.51;74.52;101404.97;5057388;28;71767;-49
2023/12/07 07:13:41;;;;;;;;;10.67;10.00;;;;;6.42;74.26;101412.19;5058078;28;45533;-48
2023/12/07 07:16:08;;;;;;;;;10.67;9.33;;;;;6.39;74.67;101403.50;5058553;28;45753;-49
2023/12/07 07:18:35;;;;;;;;;11.00;11.00;;;;;6.37;74.85;101419.34;5054481;28;46940;-48
2023/12/07 07:21:00;;;;;;;;;13.00;11.00;;;;;6.37;74.56;101427.28;5055956;28;45530;-49
2023/12/07 07:23:26;;;;;;;;;11.33;10.33;;;;;6.36;74.83;101430.84;5057061;28;45714;-50
2023/12/07 07:25:51;;;;;;;;;15.33;10.33;;;;;6.37;74.84;101434.34;5056041;28;45932;-49
2023/12/07 07:28:17;;;;;;;;;6.33;6.00;;;;;6.35;74.98;101437.03;5054490;28;46698;-48
2023/12/07 07:30:43;;;;;;;;;16.67;13.67;;;;;6.36;74.94;101454.63;5055018;28;45679;-52
2023/12/07 07:33:08;;;;;;;;;11.33;10.67;;;;;6.32;74.87;101450.28;5054058;28;45905;-48
2023/12/07 07:35:34;;;;;;;;;10.33;10.33;;;;;6.31;75.13;101440.66;5053670;28;70305;-49
2023/12/07 07:37:59;;;;;;;;;12.00;10.00;;;;;6.32;74.95;101442.38;5055530;28;46780;-49
2023/12/07 07:40:24;;;;;;;;;18.33;11.00;;;;;6.32;74.92;101433.59;5056114;28;69870;-49
2023/12/07 07:42:50;;;;;;;;;4.67;4.00;;;;;6.34;74.96;101430.00;5060025;28;68318;-48
2023/12/07 07:45:16;;;;;;;;;11.33;9.33;;;;;6.36;74.96;101428.22;5061705;28;46158;-49
2023/12/07 07:47:41;;;;;;;;;13.00;9.67;;;;;6.39;74.95;101414.91;5059392;28;47047;-47
2023/12/07 07:50:07;;;;;;;;;18.33;14.67;;;;;6.41;75.33;101421.06;5060853;28;45508;-47
2023/12/07 07:52:35;;;;;;;;;18.00;15.33;;;;;6.43;74.92;101405.16;5057780;28;45705;-48
2023/12/07 07:55:02;;;;;;;;;14.33;12.00;;;;;6.50;74.79;101401.44;5093697;27;45620;-49
2023/12/07 07:57:28;;;;;;;;;12.33;7.67;;;;;6.55;74.73;101396.91;5060135;28;46751;-49
2023/12/07 07:59:54;;;;;;;;;12.33;10.67;;;;;6.60;74.57;101394.19;5059933;28;45522;-49
2023/12/07 08:02:21;;;;;;;;;7.33;4.00;;;;;6.64;74.31;101390.56;5060290;28;69432;-49
2023/12/07 08:04:46;;;;;;;;;12.33;11.33;;;;;6.68;74.04;101394.00;5094382;27;45554;-48
2023/12/07 08:07:11;;;;;;;;;15.67;12.00;;;;;6.70;74.11;101385.13;5060305;28;59546;-50
2023/12/07 08:09:36;;;;;;;;;12.50;10.50;;;;;6.69;73.40;101380.75;5060259;28;72711;-49
2023/12/07 08:12:02;;;;;;;;;10.00;8.67;;;;;6.67;73.88;101377.25;5060292;28;69474;-48
2023/12/07 08:14:27;;;;;;;;;9.67;7.00;;;;;6.68;73.70;101363.13;5061558;28;45635;-49
2023/12/07 08:16:53;;;;;;;;;14.33;13.00;;;;;6.72;73.80;101375.38;5059258;28;47107;-52
2023/12/07 08:19:19;;;;;;;;;14.33;11.00;;;;;6.70;73.24;101361.34;5060654;28;57844;-48
2023/12/07 08:21:44;;;;;;;;;12.33;11.33;;;;;6.69;73.16;101372.81;5061346;28;45327;-49
2023/12/07 08:24:09;;;;;;;;;12.33;12.00;;;;;6.65;73.10;101360.56;5059646;28;64203;-49
2023/12/07 08:26:35;;;;;;;;;12.00;10.33;;;;;6.60;72.70;101357.19;5060918;28;52275;-50
2023/12/07 08:29:00;;;;;;;;;13.33;12.00;;;;;6.60;73.26;101352.75;5060347;28;45427;-48
2023/12/07 08:31:25;;;;;;;;;9.00;9.00;;;;;6.65;73.05;101347.34;5059314;28;64516;-48
2023/12/07 08:33:51;;;;;;;;;17.00;12.00;;;;;6.65;72.76;101346.47;5059719;28;45600;-52
2023/12/07 08:36:16;;;;;;;;;11.33;8.33;;;;;6.63;73.00;101341.22;5060578;28;46124;-48
2023/12/07 08:38:42;;;;;;;;;10.67;10.00;;;;;6.65;72.88;101335.91;5061079;28;45327;-48
2023/12/07 08:41:07;;;;;;;;;13.67;11.33;;;;;6.63;72.48;101338.59;5093405;27;45536;-49
2023/12/07 08:43:33;;;;;;;;;10.00;10.00;;;;;6.65;73.03;101346.47;5059897;28;69381;-50
2023/12/07 08:45:58;;;;;;;;;11.33;10.33;;;;;6.63;72.46;101346.50;5059583;28;75563;-48
2023/12/07 08:48:23;;;;;;;;;13.67;10.67;;;;;6.61;72.63;101349.19;5059296;28;45336;-48
2023/12/07 08:50:49;;;;;;;;;10.33;9.67;;;;;6.62;72.61;101348.31;5060665;28;45649;-48
2023/12/07 08:53:14;;;;;;;;;10.00;7.67;;;;;6.69;72.65;101356.94;5057997;28;70443;-47
2023/12/07 08:55:40;;;;;;;;;7.33;5.33;;;;;6.76;72.66;101347.06;5060684;28;45444;-48
2023/12/07 08:58:05;;;;;;;;;12.33;10.33;;;;;6.78;72.00;101330.25;5058661;28;45309;-48
2023/12/07 09:00:31;;;;;;;;;13.33;12.33;;;;;6.83;72.34;101330.16;5059763;28;45343;-48
2023/12/07 09:02:57;;;;;;;;;15.00;13.00;;;;;6.90;72.19;101323.78;5058648;28;45534;-50
2023/12/07 09:05:22;;;;;;;;;10.67;10.67;;;;;6.98;72.25;101318.28;5059484;28;71898;-49
2023/12/07 09:07:47;;;;;;;;;11.67;11.00;;;;;7.06;71.89;101320.75;5058411;28;56257;-48
2023/12/07 09:10:13;;;;;;;;;16.33;13.67;;;;;7.17;71.94;101320.44;5058311;28;69135;-50
2023/12/07 09:12:38;;;;;;;;;11.67;10.67;;;;;7.25;71.37;101307.88;5060498;28;45354;-50
2023/12/07 09:15:04;;;;;;;;;11.00;9.33;;;;;7.24;69.68;101311.44;5059910;28;47103;-49
2023/12/07 09:17:29;;;;;;;;;12.33;10.67;;;;;7.28;70.76;101307.78;5059805;28;45310;-50
2023/12/07 09:19:55;;;;;;;;;12.00;11.00;;;;;7.37;70.65;101288.13;5057982;28;56749;-49
2023/12/07 09:22:20;;;;;;;;;12.33;9.00;;;;;7.41;69.15;101274.75;5059977;28;45508;-50
2023/12/07 09:24:49;;;;;;;;;10.00;10.00;;;;;7.46;69.63;101269.34;5060030;28;46350;-49
2023/12/07 09:27:14;;;;;;;;;12.00;10.33;;;;;7.56;69.21;101269.91;5059716;28;45413;-52
2023/12/07 09:29:39;;;;;;;;;11.00;10.00;;;;;7.65;69.48;101269.63;5059769;28;45274;-51
2023/12/07 09:32:07;;;;;;;;;9.00;9.00;;;;;7.73;68.44;101262.34;5058619;28;68196;-49
2023/12/07 09:34:32;;;;;;;;;10.00;10.00;;;;;7.75;68.84;101260.50;5059703;28;46054;-49
2023/12/07 09:37:10;;;;;;;;;6.67;6.67;;;;;7.77;67.72;101263.13;5059329;28;45378;-49
2023/12/07 09:39:36;;;;;;;;;9.33;7.33;;;;;7.83;68.39;101267.34;5060417;28;45483;-49
2023/12/07 09:42:02;;;;;;;;;12.33;10.33;;;;;7.93;68.10;101263.50;5058129;28;45819;-50
2023/12/07 09:44:27;;;;;;;;;9.00;9.00;;;;;7.98;67.55;101256.28;5059480;28;47065;-49
2023/12/07 09:46:53;;;;;;;;;7.67;7.67;;;;;8.03;67.86;101250.81;5058652;28;45386;-48
2023/12/07 09:49:18;;;;;;;;;6.67;6.33;;;;;8.07;67.53;101241.84;5057191;28;62964;-48
2023/12/07 09:51:44;;;;;;;;;8.33;8.33;;;;;8.05;66.17;101235.75;5058408;28;71349;-49
2023/12/07 09:54:10;;;;;;;;;10.00;8.33;;;;;8.02;66.26;101233.22;5060649;28;49600;-49
2023/12/07 09:56:36;;;;;;;;;11.67;10.67;;;;;7.99;65.57;101230.63;5059456;28;45376;-50
2023/12/07 09:59:01;;;;;;;;;13.00;11.00;;;;;7.94;66.00;101222.84;5059094;28;45718;-50
2023/12/07 10:01:35;;;;;;;;;11.00;8.67;;;;;7.94;66.64;101213.13;5058302;28;70852;-49
2023/12/07 10:04:23;;;;;;;;;7.00;7.00;;;;;7.99;66.11;101199.72;5058555;28;46194;-50
2023/12/07 10:06:49;;;;;;;;;9.33;7.00;;;;;7.98;66.26;101192.69;5059148;28;45369;-50
2023/12/07 10:09:15;;;;;;;;;12.00;7.67;;;;;8.02;65.72;101180.22;5059098;28;45442;-50
2023/12/07 10:11:40;;;;;;;;;13.33;12.00;;;;;8.02;65.15;101181.06;5059540;28;45462;-49
2023/12/07 10:14:09;;;;;;;;;6.67;6.33;;;;;8.00;65.53;101174.09;5058412;28;45998;-54
2023/12/07 10:16:35;;;;;;;;;11.67;8.33;;;;;7.95;65.17;101180.41;5052770;28;45264;-49
2023/12/07 10:19:14;;;;;;;;;7.00;7.00;;;;;7.93;65.29;101168.13;5058974;28;45235;-48
2023/12/07 10:21:40;;;;;;;;;12.33;10.00;;;;;7.92;65.38;101172.56;5059067;28;45403;-47
2023/12/07 10:24:05;;;;;;;;;7.33;7.00;;;;;7.91;65.55;101162.91;5058199;28;46065;-48
2023/12/07 10:26:30;;;;;;;;;7.00;7.00;;;;;7.90;64.98;101169.09;5058359;28;73232;-49
2023/12/07 10:28:56;;;;;;;;;7.33;6.33;;;;;7.86;64.40;101166.59;5057266;28;64509;-47
2023/12/07 10:31:21;;;;;;;;;9.67;7.00;;;;;7.80;64.95;101166.81;5058507;28;63915;-47
2023/12/07 10:33:50;;;;;;;;;11.33;10.33;;;;;7.75;65.10;101153.72;5058922;28;46351;-47
2023/12/07 10:36:15;;;;;;;;;10.00;8.67;;;;;7.72;65.24;101159.13;5058516;28;45451;-51
2023/12/07 10:38:45;;;;;;;;;8.00;7.00;;;;;7.72;65.25;101162.63;5058712;28;53378;-47
2023/12/07 10:41:12;;;;;;;;;11.00;10.00;;;;;7.75;66.11;101164.31;5056988;28;45511;-47
2023/12/07 10:43:42;;;;;;;;;10.33;10.00;;;;;7.80;65.68;101148.28;5058648;28;47185;-48
2023/12/07 10:46:09;;;;;;;;;14.00;11.00;;;;;7.80;64.81;101143.84;5058405;28;45311;-48
2023/12/07 10:48:35;;;;;;;;;9.67;7.33;;;;;7.76;64.60;101139.56;5058576;28;45698;-48
2023/12/07 10:51:03;;;;;;;;;10.67;9.33;;;;;7.76;65.44;101129.81;5056558;28;45600;-48
2023/12/07 10:53:33;;;;;;;;;7.00;7.00;;;;;7.77;64.96;101136.00;5044413;28;46395;-47
2023/12/07 10:56:01;;;;;;;;;10.67;7.00;;;;;7.77;65.07;101131.56;5056937;28;45541;-48
2023/12/07 10:58:27;;;;;;;;;10.00;9.00;;;;;7.75;64.44;101135.19;5074261;28;45418;-49
2023/12/07 11:00:53;;;;;;;;;9.67;6.33;;;;;7.71;64.53;101120.31;5058322;28;45473;-48
2023/12/07 11:03:20;;;;;;;;;11.00;7.67;;;;;7.75;65.38;101106.91;5058448;28;45315;-50
2023/12/07 11:05:49;;;;;;;;;4.67;4.67;;;;;7.81;64.53;101104.97;5058031;28;45390;-48
2023/12/07 11:08:26;;;;;;;;;8.33;8.33;;;;;7.87;64.72;101094.19;5058524;28;45533;-50
2023/12/07 11:11:21;;;;;;;;;6.67;6.00;;;;;7.90;64.86;101083.47;5056890;28;45696;-50
2023/12/07 11:13:53;;;;;;;;;9.33;8.67;;;;;7.96;64.93;101062.06;5054541;28;45492;-49